sensor_id;sensor_type;location;lat;lon;timestamp;temperature;humidity
4487;DHT22;2256;48.740;9.106;2022-10-17T00:02:23;14.10;99.90
4487;DHT22;2256;48.740;9.106;2022-10-17T00:04:49;14.20;99.90
4487;DHT22;2256;48.740;9.106;2022-10-17T00:07:17;14.10;99.90
4487;DHT22;2256;48.740;9.106;2022-10-17T00:09:44;14.10;99.90
4487;DHT22;2256;48.740;9.106;2022-10-17T00:12:11;14.00;99.90
4487;DHT22;2256;48.740;9.106;2022-10-17T00:14:38;14.00;99.90
4487;DHT22;2256;48.740;9.106;2022-10-17T00:17:05;13.90;99.90
4487;DHT22;2256;48.740;9.106;2022-10-17T00:19:31;13.90;99.90
4487;DHT22;2256;48.740;9.106;2022-10-17T00:21:58;13.90;99.90
4487;DHT22;2256;48.740;9.106;2022-10-17T00:24:26;13.90;99.90
4487;DHT22;2256;48.740;9.106;2022-10-17T00:26:53;14.00;99.90
4487;DHT22;2256;48.740;9.106;2022-10-17T00:29:20;13.90;99.90
4487;DHT22;2256;48.740;9.106;2022-10-17T00:31:46;14.00;99.90
4487;DHT22;2256;48.740;9.106;2022-10-17T00:34:13;14.00;99.90
4487;DHT22;2256;48.740;9.106;2022-10-17T00:36:40;14.00;99.90
4487;DHT22;2256;48.740;9.106;2022-10-17T00:39:08;14.10;99.90
4487;DHT22;2256;48.740;9.106;2022-10-17T00:41:36;14.00;99.90
4487;DHT22;2256;48.740;9.106;2022-10-17T00:44:05;14.00;99.90
4487;DHT22;2256;48.740;9.106;2022-10-17T00:46:33;14.00;99.90
4487;DHT22;2256;48.740;9.106;2022-10-17T00:49:02;13.80;99.90
4487;DHT22;2256;48.740;9.106;2022-10-17T00:51:33;13.90;99.90
4487;DHT22;2256;48.740;9.106;2022-10-17T00:54:02;13.80;99.90
4487;DHT22;2256;48.740;9.106;2022-10-17T00:56:29;13.80;99.90
4487;DHT22;2256;48.740;9.106;2022-10-17T00:58:58;13.70;99.90
4487;DHT22;2256;48.740;9.106;2022-10-17T01:01:24;13.60;99.90
4487;DHT22;2256;48.740;9.106;2022-10-17T01:03:51;13.60;99.90
4487;DHT22;2256;48.740;9.106;2022-10-17T01:06:18;13.50;99.90
4487;DHT22;2256;48.740;9.106;2022-10-17T01:08:45;13.50;99.90
4487;DHT22;2256;48.740;9.106;2022-10-17T01:11:19;13.50;99.90
4487;DHT22;2256;48.740;9.106;2022-10-17T01:13:51;13.50;99.90
4487;DHT22;2256;48.740;9.106;2022-10-17T01:16:28;13.60;99.90
4487;DHT22;2256;48.740;9.106;2022-10-17T01:19:02;13.60;99.90
4487;DHT22;2256;48.740;9.106;2022-10-17T01:21:46;13.50;99.90
4487;DHT22;2256;48.740;9.106;2022-10-17T01:24:53;13.60;99.90
4487;DHT22;2256;48.740;9.106;2022-10-17T01:27:33;13.60;99.90
4487;DHT22;2256;48.740;9.106;2022-10-17T01:33:05;13.50;99.90
4487;DHT22;2256;48.740;9.106;2022-10-17T01:35:38;13.50;99.90
4487;DHT22;2256;48.740;9.106;2022-10-17T01:38:09;13.30;99.90
4487;DHT22;2256;48.740;9.106;2022-10-17T01:40:40;13.30;99.90
4487;DHT22;2256;48.740;9.106;2022-10-17T01:43:12;13.30;99.90
4487;DHT22;2256;48.740;9.106;2022-10-17T01:45:44;13.10;99.90
4487;DHT22;2256;48.740;9.106;2022-10-17T01:48:17;13.00;99.90
4487;DHT22;2256;48.740;9.106;2022-10-17T01:50:48;12.90;99.90
4487;DHT22;2256;48.740;9.106;2022-10-17T01:53:20;12.80;99.90
4487;DHT22;2256;48.740;9.106;2022-10-17T01:55:51;12.80;99.90
4487;DHT22;2256;48.740;9.106;2022-10-17T01:58:22;12.70;99.90
4487;DHT22;2256;48.740;9.106;2022-10-17T02:00:51;12.60;99.90
4487;DHT22;2256;48.740;9.106;2022-10-17T02:03:20;12.60;99.90
4487;DHT22;2256;48.740;9.106;2022-10-17T02:05:48;12.50;99.90
4487;DHT22;2256;48.740;9.106;2022-10-17T02:08:24;12.60;99.90
4487;DHT22;2256;48.740;9.106;2022-10-17T02:10:55;12.60;99.90
4487;DHT22;2256;48.740;9.106;2022-10-17T02:13:32;12.50;99.90
4487;DHT22;2256;48.740;9.106;2022-10-17T02:16:13;12.50;99.90
4487;DHT22;2256;48.740;9.106;2022-10-17T02:18:57;12.40;99.90
4487;DHT22;2256;48.740;9.106;2022-10-17T02:21:30;12.50;99.90
4487;DHT22;2256;48.740;9.106;2022-10-17T02:24:05;12.50;99.90
4487;DHT22;2256;48.740;9.106;2022-10-17T02:26:35;12.40;99.90
4487;DHT22;2256;48.740;9.106;2022-10-17T02:29:08;12.40;99.90
4487;DHT22;2256;48.740;9.106;2022-10-17T02:31:42;12.40;99.90
4487;DHT22;2256;48.740;9.106;2022-10-17T02:34:14;12.40;99.90
4487;DHT22;2256;48.740;9.106;2022-10-17T02:36:45;12.30;99.90
4487;DHT22;2256;48.740;9.106;2022-10-17T02:39:14;12.30;99.90
4487;DHT22;2256;48.740;9.106;2022-10-17T02:41:42;12.20;99.90
4487;DHT22;2256;48.740;9.106;2022-10-17T02:44:10;12.20;99.90
4487;DHT22;2256;48.740;9.106;2022-10-17T02:46:38;12.20;99.90
4487;DHT22;2256;48.740;9.106;2022-10-17T02:49:09;12.10;99.90
4487;DHT22;2256;48.740;9.106;2022-10-17T02:51:43;12.00;99.90
4487;DHT22;2256;48.740;9.106;2022-10-17T02:54:17;12.00;99.90
4487;DHT22;2256;48.740;9.106;2022-10-17T02:56:49;12.00;99.90
4487;DHT22;2256;48.740;9.106;2022-10-17T02:59:19;12.20;99.90
4487;DHT22;2256;48.740;9.106;2022-10-17T03:01:48;12.00;99.90
4487;DHT22;2256;48.740;9.106;2022-10-17T03:04:16;12.00;99.90
4487;DHT22;2256;48.740;9.106;2022-10-17T03:06:46;11.90;99.90
4487;DHT22;2256;48.740;9.106;2022-10-17T03:09:13;11.90;99.90
4487;DHT22;2256;48.740;9.106;2022-10-17T03:11:40;11.90;99.90
4487;DHT22;2256;48.740;9.106;2022-10-17T03:14:07;12.00;99.90
4487;DHT22;2256;48.740;9.106;2022-10-17T03:16:33;11.90;99.90
4487;DHT22;2256;48.740;9.106;2022-10-17T03:19:00;11.90;99.90
4487;DHT22;2256;48.740;9.106;2022-10-17T03:21:27;11.90;99.90
4487;DHT22;2256;48.740;9.106;2022-10-17T03:23:56;11.90;99.90
4487;DHT22;2256;48.740;9.106;2022-10-17T03:26:23;11.90;99.90
4487;DHT22;2256;48.740;9.106;2022-10-17T03:28:50;11.90;99.90
4487;DHT22;2256;48.740;9.106;2022-10-17T03:31:16;11.90;99.90
4487;DHT22;2256;48.740;9.106;2022-10-17T03:33:43;11.90;99.90
4487;DHT22;2256;48.740;9.106;2022-10-17T03:36:11;11.90;99.90
4487;DHT22;2256;48.740;9.106;2022-10-17T03:38:39;11.80;99.90
4487;DHT22;2256;48.740;9.106;2022-10-17T03:41:08;11.70;99.90
4487;DHT22;2256;48.740;9.106;2022-10-17T03:43:35;11.70;99.90
4487;DHT22;2256;48.740;9.106;2022-10-17T03:46:02;11.60;99.90
4487;DHT22;2256;48.740;9.106;2022-10-17T03:48:30;11.60;99.90
4487;DHT22;2256;48.740;9.106;2022-10-17T03:50:58;11.60;99.90
4487;DHT22;2256;48.740;9.106;2022-10-17T03:53:25;11.60;99.90
4487;DHT22;2256;48.740;9.106;2022-10-17T03:55:52;11.80;99.90
4487;DHT22;2256;48.740;9.106;2022-10-17T03:58:20;11.80;99.90
4487;DHT22;2256;48.740;9.106;2022-10-17T04:00:48;11.70;99.90
4487;DHT22;2256;48.740;9.106;2022-10-17T04:03:15;11.70;99.90
4487;DHT22;2256;48.740;9.106;2022-10-17T04:05:42;11.80;99.90
4487;DHT22;2256;48.740;9.106;2022-10-17T04:08:08;11.90;99.90
4487;DHT22;2256;48.740;9.106;2022-10-17T04:10:35;12.00;99.90
4487;DHT22;2256;48.740;9.106;2022-10-17T04:13:02;12.00;99.90
4487;DHT22;2256;48.740;9.106;2022-10-17T04:15:32;12.10;99.90
4487;DHT22;2256;48.740;9.106;2022-10-17T04:17:59;12.10;99.90
4487;DHT22;2256;48.740;9.106;2022-10-17T04:20:25;12.10;99.90
4487;DHT22;2256;48.740;9.106;2022-10-17T04:22:52;12.20;99.90
4487;DHT22;2256;48.740;9.106;2022-10-17T04:25:19;12.20;99.90
4487;DHT22;2256;48.740;9.106;2022-10-17T04:27:46;12.20;99.90
4487;DHT22;2256;48.740;9.106;2022-10-17T04:30:13;12.10;99.90
4487;DHT22;2256;48.740;9.106;2022-10-17T04:32:41;11.90;99.90
4487;DHT22;2256;48.740;9.106;2022-10-17T04:35:08;11.90;99.90
4487;DHT22;2256;48.740;9.106;2022-10-17T04:37:35;12.00;99.90
4487;DHT22;2256;48.740;9.106;2022-10-17T04:40:02;12.00;99.90
4487;DHT22;2256;48.740;9.106;2022-10-17T04:42:29;12.00;99.90
4487;DHT22;2256;48.740;9.106;2022-10-17T04:44:56;12.00;99.90
4487;DHT22;2256;48.740;9.106;2022-10-17T04:47:22;12.10;99.90
4487;DHT22;2256;48.740;9.106;2022-10-17T04:49:51;12.10;99.90
4487;DHT22;2256;48.740;9.106;2022-10-17T04:52:18;12.30;99.90
4487;DHT22;2256;48.740;9.106;2022-10-17T04:54:44;12.10;99.90
4487;DHT22;2256;48.740;9.106;2022-10-17T04:57:11;12.10;99.90
4487;DHT22;2256;48.740;9.106;2022-10-17T04:59:38;12.10;99.90
4487;DHT22;2256;48.740;9.106;2022-10-17T05:02:05;12.00;99.90
4487;DHT22;2256;48.740;9.106;2022-10-17T05:04:38;12.10;99.90
4487;DHT22;2256;48.740;9.106;2022-10-17T05:07:05;12.10;99.90
4487;DHT22;2256;48.740;9.106;2022-10-17T05:09:32;12.10;99.90
4487;DHT22;2256;48.740;9.106;2022-10-17T05:11:58;12.20;99.90
4487;DHT22;2256;48.740;9.106;2022-10-17T05:14:25;12.20;99.90
4487;DHT22;2256;48.740;9.106;2022-10-17T05:16:52;12.20;99.90
4487;DHT22;2256;48.740;9.106;2022-10-17T05:19:19;12.20;99.90
4487;DHT22;2256;48.740;9.106;2022-10-17T05:21:47;12.20;99.90
4487;DHT22;2256;48.740;9.106;2022-10-17T05:24:14;12.20;99.90
4487;DHT22;2256;48.740;9.106;2022-10-17T05:26:41;12.20;99.90
4487;DHT22;2256;48.740;9.106;2022-10-17T05:29:08;12.20;99.90
4487;DHT22;2256;48.740;9.106;2022-10-17T05:31:35;12.30;99.90
4487;DHT22;2256;48.740;9.106;2022-10-17T05:34:02;12.50;99.90
4487;DHT22;2256;48.740;9.106;2022-10-17T05:36:29;12.60;99.90
4487;DHT22;2256;48.740;9.106;2022-10-17T05:38:57;12.60;99.90
4487;DHT22;2256;48.740;9.106;2022-10-17T05:41:24;12.70;99.90
4487;DHT22;2256;48.740;9.106;2022-10-17T05:43:50;12.70;99.90
4487;DHT22;2256;48.740;9.106;2022-10-17T05:46:17;12.70;99.90
4487;DHT22;2256;48.740;9.106;2022-10-17T05:48:44;12.70;99.90
4487;DHT22;2256;48.740;9.106;2022-10-17T05:51:12;12.70;99.90
4487;DHT22;2256;48.740;9.106;2022-10-17T05:53:39;12.80;99.90
4487;DHT22;2256;48.740;9.106;2022-10-17T05:56:09;13.00;99.90
4487;DHT22;2256;48.740;9.106;2022-10-17T05:58:39;13.00;99.90
4487;DHT22;2256;48.740;9.106;2022-10-17T06:01:07;13.10;99.90
4487;DHT22;2256;48.740;9.106;2022-10-17T06:03:34;13.10;99.90
4487;DHT22;2256;48.740;9.106;2022-10-17T06:06:04;13.10;99.90
4487;DHT22;2256;48.740;9.106;2022-10-17T06:08:32;13.30;99.90
4487;DHT22;2256;48.740;9.106;2022-10-17T06:10:58;13.40;99.90
4487;DHT22;2256;48.740;9.106;2022-10-17T06:13:26;13.50;99.90
4487;DHT22;2256;48.740;9.106;2022-10-17T06:15:53;13.60;99.90
4487;DHT22;2256;48.740;9.106;2022-10-17T06:18:20;13.60;99.90
4487;DHT22;2256;48.740;9.106;2022-10-17T06:20:47;13.70;99.90
4487;DHT22;2256;48.740;9.106;2022-10-17T06:23:14;13.70;99.90
4487;DHT22;2256;48.740;9.106;2022-10-17T06:25:40;13.70;99.90
4487;DHT22;2256;48.740;9.106;2022-10-17T06:28:07;13.80;99.90
4487;DHT22;2256;48.740;9.106;2022-10-17T06:30:38;13.80;99.90
4487;DHT22;2256;48.740;9.106;2022-10-17T06:33:05;13.80;99.90
4487;DHT22;2256;48.740;9.106;2022-10-17T06:35:32;14.00;99.90
4487;DHT22;2256;48.740;9.106;2022-10-17T06:37:59;14.20;99.90
4487;DHT22;2256;48.740;9.106;2022-10-17T06:40:25;14.20;99.90
4487;DHT22;2256;48.740;9.106;2022-10-17T06:42:52;14.20;99.90
4487;DHT22;2256;48.740;9.106;2022-10-17T06:45:19;14.30;99.90
4487;DHT22;2256;48.740;9.106;2022-10-17T06:47:47;14.30;99.90
4487;DHT22;2256;48.740;9.106;2022-10-17T06:50:14;14.30;99.90
4487;DHT22;2256;48.740;9.106;2022-10-17T06:52:41;14.30;99.90
4487;DHT22;2256;48.740;9.106;2022-10-17T06:55:08;14.20;99.90
4487;DHT22;2256;48.740;9.106;2022-10-17T06:57:35;14.30;99.90
4487;DHT22;2256;48.740;9.106;2022-10-17T07:00:03;14.40;99.90
4487;DHT22;2256;48.740;9.106;2022-10-17T07:02:31;14.50;99.90
4487;DHT22;2256;48.740;9.106;2022-10-17T07:04:59;14.50;99.90
4487;DHT22;2256;48.740;9.106;2022-10-17T07:07:25;14.70;99.90
4487;DHT22;2256;48.740;9.106;2022-10-17T07:09:52;15.00;99.90
4487;DHT22;2256;48.740;9.106;2022-10-17T07:12:19;15.00;99.90
4487;DHT22;2256;48.740;9.106;2022-10-17T07:14:46;15.50;99.90
4487;DHT22;2256;48.740;9.106;2022-10-17T07:17:15;16.30;99.90
4487;DHT22;2256;48.740;9.106;2022-10-17T07:19:41;16.80;99.90
4487;DHT22;2256;48.740;9.106;2022-10-17T07:22:11;17.10;99.90
4487;DHT22;2256;48.740;9.106;2022-10-17T07:24:37;17.30;99.90
4487;DHT22;2256;48.740;9.106;2022-10-17T07:27:04;17.40;99.90
4487;DHT22;2256;48.740;9.106;2022-10-17T07:29:31;17.70;99.90
4487;DHT22;2256;48.740;9.106;2022-10-17T07:31:58;17.90;99.90
4487;DHT22;2256;48.740;9.106;2022-10-17T07:34:24;17.90;99.90
4487;DHT22;2256;48.740;9.106;2022-10-17T07:36:55;17.70;99.90
4487;DHT22;2256;48.740;9.106;2022-10-17T07:39:23;17.60;99.90
4487;DHT22;2256;48.740;9.106;2022-10-17T07:41:50;17.60;99.90
4487;DHT22;2256;48.740;9.106;2022-10-17T07:44:17;17.60;99.90
4487;DHT22;2256;48.740;9.106;2022-10-17T07:46:43;17.70;99.90
4487;DHT22;2256;48.740;9.106;2022-10-17T07:49:10;17.70;99.90
4487;DHT22;2256;48.740;9.106;2022-10-17T07:51:37;17.90;99.90
4487;DHT22;2256;48.740;9.106;2022-10-17T07:54:04;18.00;99.90
4487;DHT22;2256;48.740;9.106;2022-10-17T07:56:32;18.10;99.90
4487;DHT22;2256;48.740;9.106;2022-10-17T07:58:59;18.30;99.90
4487;DHT22;2256;48.740;9.106;2022-10-17T08:01:26;18.50;99.90
4487;DHT22;2256;48.740;9.106;2022-10-17T08:03:52;19.00;99.90
4487;DHT22;2256;48.740;9.106;2022-10-17T08:06:19;19.50;99.90
4487;DHT22;2256;48.740;9.106;2022-10-17T08:08:46;19.60;99.90
4487;DHT22;2256;48.740;9.106;2022-10-17T08:11:13;19.70;99.90
4487;DHT22;2256;48.740;9.106;2022-10-17T08:13:41;19.80;99.90
4487;DHT22;2256;48.740;9.106;2022-10-17T08:16:10;20.00;99.90
4487;DHT22;2256;48.740;9.106;2022-10-17T08:18:39;20.30;99.90
4487;DHT22;2256;48.740;9.106;2022-10-17T08:21:06;20.90;99.90
4487;DHT22;2256;48.740;9.106;2022-10-17T08:23:34;21.90;99.90
4487;DHT22;2256;48.740;9.106;2022-10-17T08:26:03;23.30;99.90
4487;DHT22;2256;48.740;9.106;2022-10-17T08:28:32;24.70;99.90
4487;DHT22;2256;48.740;9.106;2022-10-17T08:31:06;25.70;99.80
4487;DHT22;2256;48.740;9.106;2022-10-17T08:33:33;26.70;98.70
4487;DHT22;2256;48.740;9.106;2022-10-17T08:36:00;27.50;97.10
4487;DHT22;2256;48.740;9.106;2022-10-17T08:38:28;28.10;95.80
4487;DHT22;2256;48.740;9.106;2022-10-17T08:40:58;28.60;95.40
4487;DHT22;2256;48.740;9.106;2022-10-17T08:43:37;29.30;94.40
4487;DHT22;2256;48.740;9.106;2022-10-17T08:46:07;30.30;93.70
4487;DHT22;2256;48.740;9.106;2022-10-17T08:48:38;31.60;91.40
4487;DHT22;2256;48.740;9.106;2022-10-17T08:51:11;32.50;90.30
4487;DHT22;2256;48.740;9.106;2022-10-17T08:53:44;33.20;87.50
4487;DHT22;2256;48.740;9.106;2022-10-17T08:56:17;33.60;87.00
4487;DHT22;2256;48.740;9.106;2022-10-17T08:58:44;33.80;84.60
4487;DHT22;2256;48.740;9.106;2022-10-17T09:01:26;33.80;82.30
4487;DHT22;2256;48.740;9.106;2022-10-17T09:06:46;32.90;82.10
4487;DHT22;2256;48.740;9.106;2022-10-17T09:09:21;32.10;82.40
4487;DHT22;2256;48.740;9.106;2022-10-17T09:12:00;31.50;83.50
4487;DHT22;2256;48.740;9.106;2022-10-17T09:17:41;31.20;84.90
4487;DHT22;2256;48.740;9.106;2022-10-17T09:20:16;31.10;84.50
4487;DHT22;2256;48.740;9.106;2022-10-17T09:22:46;30.80;85.50
4487;DHT22;2256;48.740;9.106;2022-10-17T09:25:16;30.20;86.70
4487;DHT22;2256;48.740;9.106;2022-10-17T09:27:46;29.40;87.40
4487;DHT22;2256;48.740;9.106;2022-10-17T09:30:27;28.70;88.60
4487;DHT22;2256;48.740;9.106;2022-10-17T09:32:57;28.30;89.40
4487;DHT22;2256;48.740;9.106;2022-10-17T09:35:26;27.50;90.30
4487;DHT22;2256;48.740;9.106;2022-10-17T09:37:53;26.80;91.00
4487;DHT22;2256;48.740;9.106;2022-10-17T09:40:23;26.50;91.60
4487;DHT22;2256;48.740;9.106;2022-10-17T09:42:50;26.30;92.20
4487;DHT22;2256;48.740;9.106;2022-10-17T09:45:20;26.00;92.60
4487;DHT22;2256;48.740;9.106;2022-10-17T09:47:57;26.00;92.60
4487;DHT22;2256;48.740;9.106;2022-10-17T09:50:28;25.80;92.90
4487;DHT22;2256;48.740;9.106;2022-10-17T09:52:58;25.50;91.50
4487;DHT22;2256;48.740;9.106;2022-10-17T09:55:32;25.10;91.90
4487;DHT22;2256;48.740;9.106;2022-10-17T09:58:04;24.70;92.30
4487;DHT22;2256;48.740;9.106;2022-10-17T10:00:34;24.50;92.40
4487;DHT22;2256;48.740;9.106;2022-10-17T10:03:17;24.30;92.60
4487;DHT22;2256;48.740;9.106;2022-10-17T10:05:58;24.10;93.00
4487;DHT22;2256;48.740;9.106;2022-10-17T10:08:28;24.00;93.40
4487;DHT22;2256;48.740;9.106;2022-10-17T10:11:03;24.00;93.70
4487;DHT22;2256;48.740;9.106;2022-10-17T10:13:31;24.10;93.40
4487;DHT22;2256;48.740;9.106;2022-10-17T10:16:17;24.20;93.80
4487;DHT22;2256;48.740;9.106;2022-10-17T10:18:46;24.30;93.90
4487;DHT22;2256;48.740;9.106;2022-10-17T10:21:15;24.40;94.20
4487;DHT22;2256;48.740;9.106;2022-10-17T10:23:43;24.40;94.40
4487;DHT22;2256;48.740;9.106;2022-10-17T10:26:22;24.50;94.10
4487;DHT22;2256;48.740;9.106;2022-10-17T10:28:53;24.40;93.90
4487;DHT22;2256;48.740;9.106;2022-10-17T10:31:26;24.50;94.50
4487;DHT22;2256;48.740;9.106;2022-10-17T10:33:55;24.50;94.20
4487;DHT22;2256;48.740;9.106;2022-10-17T10:36:22;24.50;94.20
4487;DHT22;2256;48.740;9.106;2022-10-17T10:38:52;24.60;94.40
4487;DHT22;2256;48.740;9.106;2022-10-17T10:41:20;24.60;94.10
4487;DHT22;2256;48.740;9.106;2022-10-17T10:43:48;24.60;94.60
4487;DHT22;2256;48.740;9.106;2022-10-17T10:46:18;24.60;94.60
4487;DHT22;2256;48.740;9.106;2022-10-17T10:48:55;24.60;94.50
4487;DHT22;2256;48.740;9.106;2022-10-17T10:51:28;24.70;93.80
4487;DHT22;2256;48.740;9.106;2022-10-17T10:54:02;24.70;93.70
4487;DHT22;2256;48.740;9.106;2022-10-17T10:56:33;24.70;93.30
4487;DHT22;2256;48.740;9.106;2022-10-17T10:59:05;24.70;93.50
4487;DHT22;2256;48.740;9.106;2022-10-17T11:01:43;24.60;92.90
4487;DHT22;2256;48.740;9.106;2022-10-17T11:04:20;24.60;92.70
4487;DHT22;2256;48.740;9.106;2022-10-17T11:06:52;24.60;92.90
4487;DHT22;2256;48.740;9.106;2022-10-17T11:09:31;24.60;92.80
4487;DHT22;2256;48.740;9.106;2022-10-17T11:12:05;24.60;92.60
4487;DHT22;2256;48.740;9.106;2022-10-17T11:14:41;24.70;93.00
4487;DHT22;2256;48.740;9.106;2022-10-17T11:17:16;24.80;92.60
4487;DHT22;2256;48.740;9.106;2022-10-17T11:19:48;24.90;92.00
4487;DHT22;2256;48.740;9.106;2022-10-17T11:22:22;25.00;92.10
4487;DHT22;2256;48.740;9.106;2022-10-17T11:24:57;25.00;91.80
4487;DHT22;2256;48.740;9.106;2022-10-17T11:27:25;25.00;92.20
4487;DHT22;2256;48.740;9.106;2022-10-17T11:29:53;25.10;91.70
4487;DHT22;2256;48.740;9.106;2022-10-17T11:32:25;25.20;92.20
4487;DHT22;2256;48.740;9.106;2022-10-17T11:34:59;25.30;91.50
4487;DHT22;2256;48.740;9.106;2022-10-17T11:37:30;25.30;91.90
4487;DHT22;2256;48.740;9.106;2022-10-17T11:40:02;25.30;92.30
4487;DHT22;2256;48.740;9.106;2022-10-17T11:42:33;25.30;91.50
4487;DHT22;2256;48.740;9.106;2022-10-17T11:45:07;25.40;91.90
4487;DHT22;2256;48.740;9.106;2022-10-17T11:47:38;25.30;92.00
4487;DHT22;2256;48.740;9.106;2022-10-17T11:50:19;25.40;92.00
4487;DHT22;2256;48.740;9.106;2022-10-17T11:52:53;25.50;92.00
4487;DHT22;2256;48.740;9.106;2022-10-17T11:55:23;25.50;92.00
4487;DHT22;2256;48.740;9.106;2022-10-17T11:58:19;25.60;92.20
4487;DHT22;2256;48.740;9.106;2022-10-17T12:00:55;25.70;91.80
4487;DHT22;2256;48.740;9.106;2022-10-17T12:03:31;25.60;91.80
4487;DHT22;2256;48.740;9.106;2022-10-17T12:06:07;25.60;91.70
4487;DHT22;2256;48.740;9.106;2022-10-17T12:08:41;25.60;92.10
4487;DHT22;2256;48.740;9.106;2022-10-17T12:11:14;25.50;92.00
4487;DHT22;2256;48.740;9.106;2022-10-17T12:13:49;25.50;91.60
4487;DHT22;2256;48.740;9.106;2022-10-17T12:16:45;25.60;91.90
4487;DHT22;2256;48.740;9.106;2022-10-17T12:19:32;25.70;92.20
4487;DHT22;2256;48.740;9.106;2022-10-17T12:22:17;25.70;92.30
4487;DHT22;2256;48.740;9.106;2022-10-17T12:24:53;25.80;92.10
4487;DHT22;2256;48.740;9.106;2022-10-17T12:27:22;25.80;91.40
4487;DHT22;2256;48.740;9.106;2022-10-17T12:29:49;25.80;91.90
4487;DHT22;2256;48.740;9.106;2022-10-17T12:32:23;25.80;91.80
4487;DHT22;2256;48.740;9.106;2022-10-17T12:34:51;26.00;92.00
4487;DHT22;2256;48.740;9.106;2022-10-17T12:40:48;26.10;91.80
4487;DHT22;2256;48.740;9.106;2022-10-17T12:43:45;26.10;91.70
4487;DHT22;2256;48.740;9.106;2022-10-17T12:46:12;26.00;91.60
4487;DHT22;2256;48.740;9.106;2022-10-17T12:49:03;26.00;92.00
4487;DHT22;2256;48.740;9.106;2022-10-17T12:54:38;26.00;91.00
4487;DHT22;2256;48.740;9.106;2022-10-17T12:57:17;26.00;91.10
4487;DHT22;2256;48.740;9.106;2022-10-17T12:59:45;26.10;90.60
4487;DHT22;2256;48.740;9.106;2022-10-17T13:02:18;26.20;91.00
4487;DHT22;2256;48.740;9.106;2022-10-17T13:04:45;26.10;90.60
4487;DHT22;2256;48.740;9.106;2022-10-17T13:07:17;26.20;90.30
4487;DHT22;2256;48.740;9.106;2022-10-17T13:09:45;26.10;90.30
4487;DHT22;2256;48.740;9.106;2022-10-17T13:12:17;26.20;90.30
4487;DHT22;2256;48.740;9.106;2022-10-17T13:14:44;26.20;90.50
4487;DHT22;2256;48.740;9.106;2022-10-17T13:17:22;26.10;90.10
4487;DHT22;2256;48.740;9.106;2022-10-17T13:19:49;26.10;90.60
4487;DHT22;2256;48.740;9.106;2022-10-17T13:22:18;26.10;90.50
4487;DHT22;2256;48.740;9.106;2022-10-17T13:24:45;26.10;90.50
4487;DHT22;2256;48.740;9.106;2022-10-17T13:27:26;26.10;90.20
4487;DHT22;2256;48.740;9.106;2022-10-17T13:29:53;26.20;90.40
4487;DHT22;2256;48.740;9.106;2022-10-17T13:32:22;26.20;90.30
4487;DHT22;2256;48.740;9.106;2022-10-17T13:35:14;26.10;92.10
4487;DHT22;2256;48.740;9.106;2022-10-17T13:37:44;26.00;94.30
4487;DHT22;2256;48.740;9.106;2022-10-17T13:40:16;25.80;94.90
4487;DHT22;2256;48.740;9.106;2022-10-17T13:42:45;25.60;95.80
4487;DHT22;2256;48.740;9.106;2022-10-17T13:45:18;25.40;96.30
4487;DHT22;2256;48.740;9.106;2022-10-17T13:47:46;25.40;96.40
4487;DHT22;2256;48.740;9.106;2022-10-17T13:50:20;25.20;96.20
4487;DHT22;2256;48.740;9.106;2022-10-17T13:52:48;25.10;96.10
4487;DHT22;2256;48.740;9.106;2022-10-17T13:55:16;25.00;95.80
4487;DHT22;2256;48.740;9.106;2022-10-17T13:57:45;25.00;96.10
4487;DHT22;2256;48.740;9.106;2022-10-17T14:00:18;25.00;95.30
4487;DHT22;2256;48.740;9.106;2022-10-17T14:02:45;24.90;94.70
4487;DHT22;2256;48.740;9.106;2022-10-17T14:05:15;24.80;94.60
4487;DHT22;2256;48.740;9.106;2022-10-17T14:07:45;24.70;95.00
4487;DHT22;2256;48.740;9.106;2022-10-17T14:10:20;24.80;94.40
4487;DHT22;2256;48.740;9.106;2022-10-17T14:12:49;24.80;93.90
4487;DHT22;2256;48.740;9.106;2022-10-17T14:15:16;25.00;93.60
4487;DHT22;2256;48.740;9.106;2022-10-17T14:17:45;24.90;93.70
4487;DHT22;2256;48.740;9.106;2022-10-17T14:20:18;25.00;94.00
4487;DHT22;2256;48.740;9.106;2022-10-17T14:22:46;25.00;93.50
4487;DHT22;2256;48.740;9.106;2022-10-17T14:25:27;25.00;94.00
4487;DHT22;2256;48.740;9.106;2022-10-17T14:28:00;25.00;93.50
4487;DHT22;2256;48.740;9.106;2022-10-17T14:30:34;24.80;93.90
4487;DHT22;2256;48.740;9.106;2022-10-17T14:33:04;24.80;93.60
4487;DHT22;2256;48.740;9.106;2022-10-17T14:35:31;24.80;93.70
4487;DHT22;2256;48.740;9.106;2022-10-17T14:38:01;24.70;94.50
4487;DHT22;2256;48.740;9.106;2022-10-17T14:40:29;24.70;94.10
4487;DHT22;2256;48.740;9.106;2022-10-17T14:43:03;24.70;94.00
4487;DHT22;2256;48.740;9.106;2022-10-17T14:45:32;24.70;94.10
4487;DHT22;2256;48.740;9.106;2022-10-17T14:48:03;24.70;94.40
4487;DHT22;2256;48.740;9.106;2022-10-17T14:50:31;24.60;94.30
4487;DHT22;2256;48.740;9.106;2022-10-17T14:53:03;24.60;94.50
4487;DHT22;2256;48.740;9.106;2022-10-17T14:55:31;24.60;94.40
4487;DHT22;2256;48.740;9.106;2022-10-17T14:58:00;24.50;94.60
4487;DHT22;2256;48.740;9.106;2022-10-17T15:00:27;24.50;94.40
4487;DHT22;2256;48.740;9.106;2022-10-17T15:02:55;24.50;94.60
4487;DHT22;2256;48.740;9.106;2022-10-17T15:05:22;24.50;95.00
4487;DHT22;2256;48.740;9.106;2022-10-17T15:07:49;24.50;95.20
4487;DHT22;2256;48.740;9.106;2022-10-17T15:10:24;24.40;94.90
4487;DHT22;2256;48.740;9.106;2022-10-17T15:12:51;24.40;95.00
4487;DHT22;2256;48.740;9.106;2022-10-17T15:15:19;24.30;94.70
4487;DHT22;2256;48.740;9.106;2022-10-17T15:17:46;24.20;95.30
4487;DHT22;2256;48.740;9.106;2022-10-17T15:20:15;24.10;95.00
4487;DHT22;2256;48.740;9.106;2022-10-17T15:22:43;23.90;95.30
4487;DHT22;2256;48.740;9.106;2022-10-17T15:25:10;23.90;95.20
4487;DHT22;2256;48.740;9.106;2022-10-17T15:27:37;23.80;95.40
4487;DHT22;2256;48.740;9.106;2022-10-17T15:30:14;23.80;95.80
4487;DHT22;2256;48.740;9.106;2022-10-17T15:32:43;23.70;95.80
4487;DHT22;2256;48.740;9.106;2022-10-17T15:35:10;23.60;96.00
4487;DHT22;2256;48.740;9.106;2022-10-17T15:37:37;23.50;96.00
4487;DHT22;2256;48.740;9.106;2022-10-17T15:40:05;23.30;96.30
4487;DHT22;2256;48.740;9.106;2022-10-17T15:42:32;23.20;96.90
4487;DHT22;2256;48.740;9.106;2022-10-17T15:44:59;23.20;97.00
4487;DHT22;2256;48.740;9.106;2022-10-17T15:47:28;23.10;97.00
4487;DHT22;2256;48.740;9.106;2022-10-17T15:49:59;23.00;97.20
4487;DHT22;2256;48.740;9.106;2022-10-17T15:52:26;23.00;97.70
4487;DHT22;2256;48.740;9.106;2022-10-17T15:54:53;22.90;98.00
4487;DHT22;2256;48.740;9.106;2022-10-17T15:57:22;22.80;98.10
4487;DHT22;2256;48.740;9.106;2022-10-17T15:59:51;22.80;97.80
4487;DHT22;2256;48.740;9.106;2022-10-17T16:02:19;22.60;97.70
4487;DHT22;2256;48.740;9.106;2022-10-17T16:04:48;22.40;97.90
4487;DHT22;2256;48.740;9.106;2022-10-17T16:07:16;22.30;98.00
4487;DHT22;2256;48.740;9.106;2022-10-17T16:09:43;22.20;98.20
4487;DHT22;2256;48.740;9.106;2022-10-17T16:12:13;22.10;98.50
4487;DHT22;2256;48.740;9.106;2022-10-17T16:14:40;21.90;98.70
4487;DHT22;2256;48.740;9.106;2022-10-17T16:17:08;21.80;99.10
4487;DHT22;2256;48.740;9.106;2022-10-17T16:19:36;21.60;99.20
4487;DHT22;2256;48.740;9.106;2022-10-17T16:22:03;21.50;99.40
4487;DHT22;2256;48.740;9.106;2022-10-17T16:24:32;21.30;99.90
4487;DHT22;2256;48.740;9.106;2022-10-17T16:26:59;21.20;99.90
4487;DHT22;2256;48.740;9.106;2022-10-17T16:29:25;21.10;99.90
4487;DHT22;2256;48.740;9.106;2022-10-17T16:31:52;21.00;99.90
4487;DHT22;2256;48.740;9.106;2022-10-17T16:34:19;20.80;99.90
4487;DHT22;2256;48.740;9.106;2022-10-17T16:36:46;20.60;99.90